createdAt,value
2019-05-26T00:00:32.499Z,60.32
2019-05-26T00:04:53.664Z,59.60
2019-05-26T00:09:13.632Z,60.64
2019-05-26T00:13:36.922Z,60.39
2019-05-26T00:17:57.480Z,60.61
2019-05-26T00:22:17.945Z,60.44
2019-05-26T00:26:38.634Z,60.62
2019-05-26T00:30:59.034Z,60.95
2019-05-26T00:35:19.777Z,60.47
2019-05-26T00:39:40.270Z,60.52
2019-05-26T00:44:00.919Z,59.93
2019-05-26T00:48:21.344Z,60.51
2019-05-26T00:52:42.008Z,60.24
2019-05-26T00:57:03.200Z,60.23
2019-05-26T01:01:23.233Z,60.64
2019-05-26T01:05:43.607Z,60.33
2019-05-26T01:10:05.003Z,60.67
2019-05-26T01:14:25.796Z,61.72
2019-05-26T01:18:46.076Z,61.47
2019-05-26T01:23:06.974Z,61.89
2019-05-26T01:27:27.274Z,62.09
2019-05-26T01:31:48.472Z,61.86
2019-05-26T01:36:09.088Z,62.19
2019-05-26T01:40:37.404Z,62.55
2019-05-26T01:44:57.323Z,63.01
2019-05-26T01:49:17.724Z,63.32
2019-05-26T01:53:38.020Z,63.15
2019-05-26T01:57:58.142Z,63.44
2019-05-26T02:02:18.193Z,63.57
2019-05-26T02:06:38.816Z,63.82
2019-05-26T02:10:59.458Z,63.86
2019-05-26T02:15:20.625Z,64.46
2019-05-26T02:19:42.353Z,64.90
2019-05-26T02:24:02.798Z,65.04
2019-05-26T02:28:22.801Z,64.70
2019-05-26T02:32:43.649Z,64.79
2019-05-26T02:37:04.696Z,64.58
2019-05-26T02:41:25.260Z,65.07
2019-05-26T02:45:45.687Z,64.91
2019-05-26T02:50:06.830Z,64.89
2019-05-26T02:54:27.471Z,64.94
2019-05-26T02:58:48.023Z,64.82
2019-05-26T03:03:08.591Z,64.97
2019-05-26T03:07:31.020Z,64.98
2019-05-26T03:11:52.960Z,64.93
2019-05-26T03:16:15.196Z,65.03
2019-05-26T03:20:37.616Z,65.08
2019-05-26T03:24:59.838Z,65.17
2019-05-26T03:29:20.366Z,65.10
2019-05-26T03:33:40.654Z,64.99
2019-05-26T03:38:01.344Z,65.41
2019-05-26T03:42:21.787Z,65.19
2019-05-26T03:46:42.243Z,65.41
2019-05-26T03:51:02.748Z,65.69
2019-05-26T03:55:23.365Z,65.84
2019-05-26T03:59:44.001Z,65.97
2019-05-26T04:04:04.838Z,65.78
2019-05-26T04:08:25.298Z,65.66
2019-05-26T04:12:45.812Z,65.66
2019-05-26T04:17:06.437Z,66.05
2019-05-26T04:21:27.037Z,65.85
2019-05-26T04:25:47.939Z,66.11
2019-05-26T04:30:08.358Z,66.25
2019-05-26T04:34:29.113Z,66.35
2019-05-26T04:38:49.258Z,66.42
2019-05-26T04:43:14.429Z,66.38
2019-05-26T04:47:32.552Z,66.62
2019-05-26T04:51:53.057Z,66.68
2019-05-26T04:56:13.964Z,67.01
2019-05-26T05:00:34.622Z,66.98
2019-05-26T05:04:55.335Z,67.28
2019-05-26T05:09:16.162Z,66.61
2019-05-26T05:13:37.348Z,67.00
2019-05-26T05:17:57.478Z,66.95
2019-05-26T05:22:17.596Z,66.49
2019-05-26T05:26:37.880Z,66.27
2019-05-26T05:30:58.271Z,65.80
2019-05-26T05:35:18.906Z,65.50
2019-05-26T05:39:39.470Z,65.40
2019-05-26T05:43:59.612Z,65.65
2019-05-26T05:48:20.253Z,65.43
2019-05-26T05:52:41.176Z,64.99
2019-05-26T05:57:01.731Z,64.67
2019-05-26T06:01:22.504Z,64.43
2019-05-26T06:05:43.004Z,64.11
2019-05-26T06:10:05.491Z,63.51
2019-05-26T06:14:26.174Z,63.32
2019-05-26T06:18:47.219Z,63.91
2019-05-26T06:23:08.139Z,62.99
2019-05-26T06:27:28.650Z,62.30
2019-05-26T06:31:49.390Z,62.48
2019-05-26T06:36:10.040Z,61.95
2019-05-26T06:40:30.131Z,61.45
2019-05-26T06:44:53.851Z,60.34
2019-05-26T06:49:12.476Z,60.51
2019-05-26T06:53:36.988Z,58.70
2019-05-26T06:57:55.760Z,57.70
2019-05-26T07:02:16.581Z,58.09
2019-05-26T07:06:37.033Z,57.77
2019-05-26T07:10:57.850Z,56.90
2019-05-26T07:15:18.428Z,56.60
2019-05-26T07:19:39.036Z,55.34
2019-05-26T07:23:59.623Z,54.94
2019-05-26T07:28:20.434Z,55.39
2019-05-26T07:32:41.038Z,54.30
2019-05-26T07:37:01.611Z,52.55
2019-05-26T07:41:22.187Z,53.45
2019-05-26T07:45:43.085Z,52.88
2019-05-26T07:50:04.111Z,53.89
2019-05-26T07:54:26.071Z,53.50
2019-05-26T07:58:46.657Z,51.68
2019-05-26T08:03:07.094Z,51.89
2019-05-26T08:07:27.211Z,51.75
2019-05-26T08:11:47.647Z,51.17
2019-05-26T08:16:08.392Z,52.10
2019-05-26T08:20:29.646Z,51.82
2019-05-26T08:24:49.770Z,51.76
2019-05-26T08:29:10.931Z,51.97
2019-05-26T08:33:31.722Z,51.80
2019-05-26T08:37:52.595Z,52.11
2019-05-26T08:42:26.411Z,51.13
2019-05-26T08:46:35.527Z,50.26
2019-05-26T08:50:55.995Z,50.18
2019-05-26T08:55:16.550Z,49.59
2019-05-26T08:59:37.663Z,49.90
2019-05-26T09:03:58.280Z,49.33
2019-05-26T09:08:18.730Z,48.43
2019-05-26T09:12:39.525Z,47.55
2019-05-26T09:16:59.926Z,48.58
2019-05-26T09:21:23.793Z,47.15
2019-05-26T09:25:48.652Z,45.10
2019-05-26T09:30:10.678Z,45.54
2019-05-26T09:34:32.984Z,44.66
2019-05-26T09:38:54.075Z,43.62
2019-05-26T09:43:16.511Z,42.29
2019-05-26T09:47:36.404Z,42.58
2019-05-26T09:51:57.531Z,40.80
2019-05-26T09:56:18.345Z,40.22
2019-05-26T10:00:39.964Z,39.12
2019-05-26T10:05:00.376Z,39.09
2019-05-26T10:09:20.493Z,38.62
2019-05-26T10:13:41.568Z,38.26
2019-05-26T10:18:01.927Z,38.66
2019-05-26T10:22:22.334Z,40.65
2019-05-26T10:26:43.054Z,41.23
2019-05-26T10:31:04.517Z,40.48
2019-05-26T10:35:25.066Z,42.35
2019-05-26T10:39:46.443Z,40.96
2019-05-26T10:44:06.842Z,43.07
2019-05-26T10:48:27.631Z,42.33
2019-05-26T10:52:48.250Z,43.73
2019-05-26T10:57:12.569Z,42.15
2019-05-26T11:01:33.075Z,41.92
2019-05-26T11:05:54.201Z,42.37
2019-05-26T11:10:15.199Z,42.74
2019-05-26T11:14:36.125Z,42.67
2019-05-26T11:18:56.757Z,43.45
2019-05-26T11:23:21.746Z,43.68
2019-05-26T11:27:42.414Z,44.02
2019-05-26T11:32:02.751Z,44.44
2019-05-26T11:36:23.351Z,45.15
2019-05-26T11:40:49.578Z,44.10
2019-05-26T11:45:11.137Z,43.87
2019-05-26T11:49:31.807Z,43.15
2019-05-26T12:03:56.594Z,43.69
2019-05-26T12:08:17.656Z,43.33
2019-05-26T12:12:38.150Z,42.73
2019-05-26T12:17:01.799Z,43.50
2019-05-26T12:21:22.367Z,44.09
2019-05-26T12:25:43.377Z,44.22
2019-05-26T12:30:04.297Z,44.40
2019-05-26T12:34:25.433Z,44.19
2019-05-26T12:38:49.415Z,43.21
2019-05-26T12:43:10.143Z,42.29
2019-05-26T12:47:30.863Z,43.06
2019-05-26T12:51:51.129Z,44.07
2019-05-26T12:56:11.838Z,44.43
2019-05-26T13:00:48.212Z,42.19
2019-05-26T13:04:57.102Z,41.24
2019-05-26T13:09:17.365Z,42.14
2019-05-26T13:13:19.468Z,43.35
2019-05-26T13:17:21.184Z,43.05
2019-05-26T13:21:23.573Z,41.79
2019-05-26T13:25:44.576Z,41.97
2019-05-26T13:29:46.532Z,42.27
2019-05-26T13:33:52.803Z,42.64
2019-05-26T13:37:54.798Z,41.64
2019-05-26T13:41:57.077Z,42.66
2019-05-26T13:45:59.095Z,42.32
2019-05-26T13:50:02.285Z,43.27
2019-05-26T13:54:04.636Z,42.60
2019-05-26T13:58:06.965Z,43.17
2019-05-26T14:02:09.398Z,41.98
2019-05-26T14:06:14.587Z,42.61
2019-05-26T14:10:30.778Z,42.42
2019-05-26T14:14:33.689Z,42.41
2019-05-26T14:18:35.908Z,42.04
2019-05-26T14:22:37.718Z,41.86
2019-05-26T14:26:39.921Z,42.33
2019-05-26T14:30:41.744Z,42.06
2019-05-26T14:34:43.577Z,41.76
2019-05-26T14:38:45.661Z,42.36
2019-05-26T14:42:48.025Z,42.50
2019-05-26T14:46:49.963Z,42.11
2019-05-26T14:50:54.493Z,42.97
2019-05-26T14:54:56.328Z,44.30
2019-05-26T14:58:58.512Z,44.58
2019-05-26T15:03:00.346Z,45.74
2019-05-26T15:07:03.043Z,45.91
2019-05-26T15:11:05.840Z,46.14
2019-05-26T15:15:08.524Z,44.82
2019-05-26T15:19:10.742Z,44.64
2019-05-26T15:23:13.524Z,45.09
2019-05-26T15:27:15.768Z,43.75
2019-05-26T15:31:18.501Z,44.14
2019-05-26T15:35:21.216Z,44.62
2019-05-26T15:39:25.935Z,45.82
2019-05-26T15:43:32.272Z,46.35
2019-05-26T15:47:34.953Z,46.07
2019-05-26T15:51:42.849Z,46.64
2019-05-26T15:55:47.860Z,47.80
2019-05-26T15:59:57.972Z,47.04
2019-05-26T16:04:00.171Z,47.86
2019-05-26T16:08:02.456Z,47.72
2019-05-26T16:12:04.840Z,47.86
2019-05-26T16:16:06.652Z,48.37
2019-05-26T16:20:09.952Z,48.79
2019-05-26T16:24:12.026Z,47.96
2019-05-26T16:28:14.597Z,48.19
2019-05-26T16:32:18.862Z,47.58
2019-05-26T16:36:21.383Z,47.41
2019-05-26T16:40:24.524Z,47.42
2019-05-26T16:44:26.373Z,47.43
2019-05-26T16:48:28.999Z,48.09
2019-05-26T16:52:35.524Z,47.04
2019-05-26T16:56:41.502Z,47.21
2019-05-26T17:00:43.809Z,46.54
2019-05-26T17:05:05.832Z,44.04
2019-05-26T17:09:12.983Z,41.06
2019-05-26T17:13:16.214Z,38.96
2019-05-26T17:17:18.253Z,38.07
2019-05-26T17:21:20.245Z,37.82
2019-05-26T17:25:22.843Z,37.76
2019-05-26T17:29:25.637Z,39.82
2019-05-26T17:33:27.744Z,41.59
2019-05-26T17:37:29.934Z,43.39
2019-05-26T17:41:31.715Z,44.68
2019-05-26T17:45:33.521Z,45.25
2019-05-26T17:49:36.256Z,46.45
2019-05-26T17:53:38.225Z,46.28
2019-05-26T17:57:40.622Z,46.64
2019-05-26T18:01:42.801Z,47.16
2019-05-26T18:05:45.162Z,47.58
2019-05-26T18:09:47.337Z,46.99
2019-05-26T18:13:55.438Z,47.79
2019-05-26T18:17:57.624Z,47.22
2019-05-26T18:22:00.931Z,47.61
2019-05-26T18:26:03.351Z,48.25
2019-05-26T18:30:06.531Z,47.75
2019-05-26T18:34:08.608Z,47.87
2019-05-26T18:38:11.208Z,48.01
2019-05-26T18:42:13.922Z,47.82
2019-05-26T18:46:20.854Z,47.99
2019-05-26T18:50:23.627Z,48.59
2019-05-26T18:54:25.975Z,48.36
2019-05-26T18:58:28.256Z,48.92
2019-05-26T19:02:30.421Z,48.84
2019-05-26T19:06:33.196Z,49.29
2019-05-26T19:10:36.707Z,49.70
2019-05-26T19:14:39.761Z,49.97
2019-05-26T19:18:42.658Z,50.67
2019-05-26T19:22:45.133Z,50.98
2019-05-26T19:26:47.265Z,51.17
2019-05-26T19:30:50.198Z,51.41
2019-05-26T19:34:52.133Z,51.51
2019-05-26T19:38:54.692Z,52.07
2019-05-26T19:42:57.338Z,51.97
2019-05-26T19:47:00.159Z,52.38
2019-05-26T19:51:03.602Z,52.66
2019-05-26T19:55:06.576Z,52.58
2019-05-26T19:59:08.537Z,53.13
2019-05-26T20:03:10.470Z,53.19
2019-05-26T20:07:12.372Z,53.46
2019-05-26T20:11:17.441Z,53.85
2019-05-26T20:15:22.779Z,54.17
2019-05-26T20:19:25.584Z,54.01
2019-05-26T20:23:27.557Z,54.01
2019-05-26T20:27:30.187Z,54.59
2019-05-26T20:31:32.577Z,53.42
2019-05-26T20:35:35.119Z,52.81
2019-05-26T20:39:37.599Z,52.00
2019-05-26T20:43:49.611Z,52.48
2019-05-26T20:47:51.889Z,52.04
2019-05-26T20:51:57.753Z,52.24
2019-05-26T20:56:00.179Z,51.56
2019-05-26T21:00:03.574Z,51.22
2019-05-26T21:04:06.349Z,50.29
2019-05-26T21:08:09.725Z,50.92
2019-05-26T21:12:15.356Z,51.37
2019-05-26T21:16:20.519Z,51.89
2019-05-26T21:20:22.636Z,52.48
2019-05-26T21:24:27.724Z,52.70
2019-05-26T21:28:29.596Z,53.13
2019-05-26T21:32:32.273Z,53.55
2019-05-26T21:36:35.283Z,54.22
2019-05-26T21:40:37.894Z,54.97
2019-05-26T21:44:40.304Z,55.57
2019-05-26T21:48:42.192Z,56.50
2019-05-26T21:52:44.615Z,56.97
2019-05-26T21:56:46.601Z,57.41
2019-05-26T22:00:49.526Z,57.61
2019-05-26T22:04:51.623Z,58.18
2019-05-26T22:08:54.092Z,58.48
2019-05-26T22:12:56.346Z,59.08
2019-05-26T22:16:58.397Z,59.35
2019-05-26T22:21:00.189Z,59.92
2019-05-26T22:25:02.153Z,60.10
2019-05-26T22:29:04.196Z,60.26
2019-05-26T22:33:06.691Z,60.86
2019-05-26T22:37:08.492Z,60.71
2019-05-26T22:41:10.659Z,61.33
2019-05-26T22:45:12.703Z,61.64
2019-05-26T22:49:14.833Z,61.53
2019-05-26T22:53:18.958Z,61.89
2019-05-26T22:57:21.269Z,62.18
2019-05-26T23:01:24.008Z,62.84
2019-05-26T23:05:26.258Z,62.82
2019-05-26T23:09:28.292Z,62.50
2019-05-26T23:13:30.426Z,62.88
2019-05-26T23:17:32.283Z,63.15
2019-05-26T23:21:34.422Z,63.07
2019-05-26T23:25:36.152Z,63.49
2019-05-26T23:29:38.310Z,63.73
2019-05-26T23:33:40.114Z,63.68
2019-05-26T23:37:42.018Z,64.14
2019-05-26T23:41:44.397Z,63.87
2019-05-26T23:45:46.388Z,63.50
2019-05-26T23:49:48.131Z,63.16
2019-05-26T23:53:49.993Z,62.96
